Tiempo atmosférico en la estación meteorológica de Alcázar Del Rey, Cuenca (875 m.)



Fecha
DESCASC
Temp. máxima en grados centígrados (hora)
DESCASC
Temp. mínima en grados centígrados (hora)
DESCASC
Temp. media en grados centígrados
DESCASC
Racha de viento máxima en m/sg (hora)
DESCASC
Velocidad máxima media en intervalos de 10 minutos(hora)
DESCASC
Precipitaciones diarias en mm
DESCASC
Precipitaciones de 00:00 a 06:00 en mm
DESCASC
Precipitaciones de 06:00 a 12:00 en mm
DESCASC
Precipitaciones de 12:00 a 18:00 en mm
DESCASC
Precipitaciones de 18:00 a 24:00 en mm
DESCASC
19-01-2020 6.7 (00:00) 0.7 (23:50) 3.7 17.22 (13:40) 11.11 (11:50) 0.2 0 0.2 0 0
18-01-2020 8.1 (14:40) 2.8 (02:30) 5.5 11.11 (23:00) 5.83 (22:40) 2.8 0 0.6 0.2 2
17-01-2020 11.3 (15:40) 2.7 (21:30) 7 10 (12:20) 5.83 (12:20) 0 0 0 0 0
16-01-2020 14 (16:10) 4.1 (00:00) 9 6.94 (14:10) 3.61 (16:20) 0 0 0 0 0
15-01-2020 11.4 (16:00) -1.5 (-00:0) 4.9 5.28 (14:20) 2.78 (14:20) 0 0 0 0 0
14-01-2020 10.2 (15:00) -6.9 (-00:0) 1.6 5 (15:30) 2.5 (14:30) 0 0 0 0 0
13-01-2020 9.6 (15:30) -6.4 (-00:0) 1.6 6.11 (14:10) 3.61 (14:20) 0 0 0 0 0
12-01-2020 10.5 (13:50) -5.6 (-00:0) 2.5 5.56 (14:10) 3.61 (15:00) 0 0 0 0 0
11-01-2020 11.6 (15:20) -2.8 (-00:0) 4.4 8.61 (00:40) 5 (00:40) 0 0 0 0 0
10-01-2020 9.4 (15:20) -1.7 (-00:0) 3.8 10.28 (13:50) 5.83 (16:40) 0 0 0 0 0
09-01-2020 14 (16:20) 0.1 (00:00) 7.1 4.72 (14:10) 2.78 (07:10) 0 0 0 0 0
08-01-2020 15.4 (15:20) -0.7 (-00:0) 7.3 6.11 (15:30) 3.61 (15:30) 0 0 0 0 0
07-01-2020 15.3 (16:30) -2 (-00:0) 6.7 5.83 (10:40) 4.17 (10:30) 0 0 0 0 0
06-01-2020 14.4 (15:30) -2.1 (-00:0) 6.1 5.28 (11:00) 3.89 (11:20) 0 0 0 0 0
05-01-2020 15.7 (15:50) -1.7 (-00:0) 7 5 (09:40) 3.33 (09:40) 0 0 0 0 0
04-01-2020 10.7 (16:10) -0.1 (00:00) 5.3 8.33 (05:00) 5.28 (05:10) 0 0 0 0 0
03-01-2020 5.5 (14:10) -3.2 (-00:0) 1.1 6.67 (23:59) 3.61 (19:10) 0 0 0 0 0
02-01-2020 15.9 (16:30) -3.7 (-00:0) 6.1 2.22 (14:00) 1.39 (19:30) 0 0 0 0 0
01-01-2020 16.6 (15:50) -2.2 (-00:0) 7.2 4.72 (10:10) 2.78 (12:40) 0.2 0 0 0.2 0
31-12-2019 12.9 (15:30) -1.6 (-00:0) 5.6 4.72 (14:10) 2.5 (13:50) 0 0 0 0 0
30-12-2019 -- (--) -- (--) -- -- (--) -- (--) -- 0 0 -- 0
29-12-2019 15.1 (15:00) -0.7 (-00:0) 7.2 4.17 (11:00) 3.06 (11:00) 0 0 0 0 0
28-12-2019 14.9 (15:30) 0.6 (00:00) 7.7 8.06 (04:40) 6.39 (04:40) 0 0 0 0 0
27-12-2019 12.9 (15:50) 0.6 (00:00) 6.7 5.83 (10:30) 4.17 (10:30) 0 0 0 0 0
26-12-2019 13.6 (14:50) 3.4 (00:00) 8.5 6.67 (22:20) 4.44 (23:10) 0 0 0 0 0
25-12-2019 18.4 (16:20) 2 (00:00) 10.2 5 (07:00) 3.89 (07:00) 0 0 0 0 0
24-12-2019 18.1 (15:10) 0.9 (00:00) 9.5 4.17 (11:10) 2.78 (11:00) 0 0 0 0 0
23-12-2019 13.5 (15:40) 3.2 (00:00) 8.4 8.33 (00:10) 5.83 (00:10) 0 0 0 0 0

Gráficas

Temp. máximas Temp. mínimas Temp. medias Precipitaciones Rachas de viento máximas Velocidades máximas media en intervalos de 10 minutos

Datos horarios

Fecha y hora oficial Temperatura (ºC) Velocidad del viento (km/h) Dirección del viento Racha (km/h) Dirección de racha Precipitación (mm) Presión (hPa) Tendencia (hPa) Humedad (%)
2020-01-21 23:00:00 -- -- -- -- -- -- -- -- --
2020-01-21 22:00:00 -- -- -- -- -- -- -- -- --
2020-01-21 21:00:00 1.7 14 Nordeste 28 Nordeste 0 -- -- 97
2020-01-21 20:00:00 1.9 16 Nordeste 29 Nordeste 0.6 -- -- 97
2020-01-21 19:00:00 1.8 17 Nordeste 31 Nordeste 0.8 -- -- 97
2020-01-21 18:00:00 1.3 18 Nordeste 31 Nordeste 0.6 -- -- 97
2020-01-21 17:00:00 1.1 14 Nordeste 31 Nordeste 0.4 -- -- 96
2020-01-21 16:00:00 1.4 20 Nordeste 47 Nordeste 3.6 -- -- 95
2020-01-21 15:00:00 4.9 24 Nordeste 40 Nordeste 0 -- -- 77
2020-01-21 14:00:00 6.4 18 Nordeste 43 Nordeste 0 -- -- 65
2020-01-21 13:00:00 4.8 24 Nordeste 48 Nordeste 0 -- -- 68
2020-01-21 12:00:00 3.5 32 Nordeste 52 Nordeste 0 -- -- 78
2020-01-21 11:00:00 2.4 33 Nordeste 50 Nordeste 0 -- -- 79
2020-01-21 10:00:00 2.1 27 Nordeste 50 Nordeste 0 -- -- 75
2020-01-21 09:00:00 1.8 25 Nordeste 47 Nordeste 0 -- -- 74
2020-01-21 08:00:00 1.7 30 Nordeste 46 Nordeste 0 -- -- 76
2020-01-21 07:00:00 1 26 Nordeste 51 Nordeste 0 -- -- 80
2020-01-21 06:00:00 0.5 24 Nordeste 47 Nordeste 0 -- -- 80
2020-01-21 05:00:00 0.3 24 Nordeste 42 Norte 0 -- -- 80
2020-01-21 04:00:00 0.8 19 Nordeste 43 Nordeste 0 -- -- 78
2020-01-21 03:00:00 1.4 17 Nordeste 33 Nordeste 0 -- -- 76
2020-01-21 02:00:00 1.3 15 Nordeste 35 Norte 0 -- -- 76
2020-01-21 01:00:00 1.3 19 Nordeste 34 Nordeste 0 -- -- 75
2020-01-21 00:00:00 1.6 19 Nordeste 40 Este 0 -- -- 74
2020-01-20 23:00:00 1.5 19 Nordeste 50 Nordeste 0 -- -- 74
2020-01-20 22:00:00 1.7 30 Nordeste 48 Nordeste 0 -- -- 72
2020-01-20 21:00:00 1.7 27 Nordeste 43 Nordeste 0 -- -- 71
2020-01-20 20:00:00 1.2 21 Nordeste 45 Nordeste 0 -- -- 73
2020-01-20 19:00:00 1.4 24 Nordeste 49 Nordeste 0 -- -- 72
2020-01-20 18:00:00 2.2 24 Nordeste 46 Nordeste 0 -- -- 68
2020-01-20 17:00:00 3.2 23 Nordeste 54 Nordeste 0 -- -- 65
2020-01-20 16:00:00 3.7 29 Nordeste 55 Nordeste 0 -- -- 62
2020-01-20 15:00:00 4.9 35 Nordeste 56 Nordeste 0 -- -- 59
2020-01-20 14:00:00 4.7 26 Nordeste 60 Nordeste 0 -- -- 58
2020-01-20 13:00:00 3.5 30 Nordeste 51 Nordeste 0 -- -- 61
2020-01-20 12:00:00 2.4 23 Nordeste 49 Nordeste 0 -- -- 61
2020-01-20 11:00:00 1.5 20 Nordeste 36 Nordeste 0 -- -- 60
2020-01-20 10:00:00 0 22 Nordeste 41 Nordeste 0 -- -- 57
2020-01-20 09:00:00 -0.8 24 Nordeste 44 Norte 0 -- -- 61
2020-01-20 08:00:00 -0.8 31 Nordeste 54 Norte 0 -- -- 62
2020-01-20 07:00:00 -0.6 31 Nordeste 54 Nordeste 0 -- -- 62
2020-01-20 06:00:00 -0.8 28 Nordeste 51 Nordeste 0 -- -- 64
2020-01-20 05:00:00 -0.8 32 Nordeste 51 Norte 0 -- -- 64
2020-01-20 04:00:00 -0.7 28 Nordeste 52 Norte 0 -- -- 65
2020-01-20 03:00:00 -0.7 28 Nordeste 53 Norte 0 -- -- 65
2020-01-20 02:00:00 -0.4 32 Nordeste 55 Nordeste 0 -- -- 64
2020-01-20 01:00:00 0.1 31 Nordeste 55 Nordeste 0 -- -- 65
2020-01-20 00:00:00 0.7 21 Norte 37 Nordeste 0 -- -- 63
2020-01-19 23:00:00 0.9 16 Nordeste 33 Norte 0 -- -- 63
2020-01-19 22:00:00 1.2 16 Nordeste 33 Nordeste 0 -- -- 60
2020-01-19 21:00:00 1.6 22 Nordeste 42 Nordeste 0 -- -- 57
2020-01-19 20:00:00 2.1 18 Nordeste 40 Nordeste 0 -- -- 57
2020-01-19 19:00:00 3.1 22 Nordeste 42 Nordeste 0 -- -- 54
2020-01-19 18:00:00 3.7 12 Nordeste 37 Nordeste 0 -- -- 65
2020-01-19 17:00:00 4.3 20 Nordeste 43 Nordeste 0 -- -- 65
2020-01-19 16:00:00 4.3 25 Nordeste 48 Nordeste 0 -- -- 71
2020-01-19 15:00:00 4.9 28 Nordeste 54 Nordeste 0 -- -- 70
2020-01-19 14:00:00 5.2 33 Norte 62 Nordeste 0 -- -- 71
2020-01-19 13:00:00 5 33 Norte 59 Norte 0 -- -- 74
2020-01-19 12:00:00 5.2 35 Norte 60 Norte 0 -- -- 75
2020-01-19 11:00:00 4.3 25 Norte 48 Norte 0 -- -- 85
2020-01-19 10:00:00 4.2 20 Norte 36 Norte 0 -- -- 84
2020-01-19 09:00:00 3.2 12 Norte 23 Norte 0 -- -- 90
2020-01-19 08:00:00 1.9 6 Norte 15 Norte 0.2 -- -- 96
2020-01-19 07:00:00 1.5 6 Norte 14 Norte 0 -- -- 95
2020-01-19 06:00:00 2.6 8 Norte 15 Norte 0 -- -- 90
2020-01-19 05:00:00 2.9 5 Norte 18 Noroeste 0 -- -- 91
2020-01-19 04:00:00 3.9 9 Norte 22 Nordeste 0 -- -- 89
2020-01-19 03:00:00 3.8 2 Este 13 Noroeste 0 -- -- 90
2020-01-19 02:00:00 4.6 5 Norte 24 Norte 0 -- -- 88
2020-01-19 01:00:00 6.2 13 Noroeste 39 Noroeste 0 -- -- 93
2020-01-19 00:00:00 6.7 13 Noroeste 32 Oeste 0.2 -- -- 95
2020-01-18 23:00:00 7.5 20 Oeste 40 Oeste 0.6 -- -- 95
2020-01-18 22:00:00 7.9 12 Oeste 34 Sudoeste 0.8 -- -- 95
2020-01-18 21:00:00 7.9 13 Sudoeste 32 Sudoeste 0 -- -- 97
2020-01-18 20:00:00 7.7 11 Sudoeste 30 Sudoeste 0.2 -- -- 97
2020-01-18 19:00:00 7.4 10 Sudoeste 32 Sudoeste 0.2 -- -- 96
2020-01-18 18:00:00 7.5 13 Sudoeste 32 Sudoeste 0.2 -- -- 95
2020-01-18 17:00:00 7.6 9 Sur 30 Sudoeste 0 -- -- 94
2020-01-18 16:00:00 7.9 15 Sudoeste 28 Sudoeste 0 -- -- 92
2020-01-18 15:00:00 8 10 Sudoeste 24 Sudoeste 0 -- -- 90
2020-01-18 14:00:00 7.6 8 Sur 24 Sudoeste 0 -- -- 91
2020-01-18 13:00:00 7.3 10 Sur 27 Sur 0 -- -- 88
2020-01-18 12:00:00 7 11 Sur 19 Sur 0 -- -- 87
2020-01-18 11:00:00 5.5 9 Sur 14 Sur 0 -- -- 94
2020-01-18 10:00:00 4.6 4 Sur 7 Sudeste 0 -- -- 95
2020-01-18 09:00:00 4.4 3 Sur 15 Sur 0.2 -- -- 95
2020-01-18 08:00:00 3.7 5 Sudoeste 13 Oeste 0.4 -- -- 94
2020-01-18 07:00:00 3.8 6 Sudoeste 19 Este 0 -- -- 94
2020-01-18 06:00:00 3.3 3 Este 6 Este 0 -- -- 95
2020-01-18 05:00:00 3.1 2 Sudeste 5 Este 0 -- -- 94
2020-01-18 04:00:00 2.9 3 Sudeste 7 Sur 0 -- -- 94
2020-01-18 03:00:00 3 3 Sudeste 8 Sudeste 0 -- -- 94
2020-01-18 02:00:00 3.3 4 Sudeste 10 Sudeste 0 -- -- 93
2020-01-18 01:00:00 3.7 4 Sudeste 9 Sur 0 -- -- 94
2020-01-18 00:00:00 3.3 0 Calma 8 Oeste 0 -- -- 92
2020-01-17 23:00:00 3.1 2 Sudeste 5 Este 0 -- -- 93
2020-01-17 22:00:00 2.8 0 Calma 5 Oeste 0 -- -- 92
2020-01-17 21:00:00 3 0 Calma 6 Oeste 0 -- -- 90
2020-01-17 20:00:00 4.4 2 Norte 8 Oeste 0 -- -- 86
2020-01-17 19:00:00 6.4 2 Oeste 13 Oeste 0 -- -- 80
2020-01-17 18:00:00 8.9 6 Oeste 22 Noroeste 0 -- -- 70
2020-01-17 17:00:00 9.7 11 Noroeste 29 Noroeste 0 -- -- 70
2020-01-17 16:00:00 10.8 21 Noroeste 31 Oeste 0 -- -- 66
2020-01-17 15:00:00 10.5 17 Oeste 33 Oeste 0 -- -- 69
2020-01-17 14:00:00 10 15 Oeste 32 Noroeste 0 -- -- 71
2020-01-17 13:00:00 10 17 Oeste 36 Oeste 0 -- -- 70
2020-01-17 12:00:00 10.2 18 Oeste 33 Oeste 0 -- -- 70
2020-01-17 11:00:00 7.6 10 Oeste 21 Sudoeste 0 -- -- 79
2020-01-17 10:00:00 6.4 4 Sudoeste 13 Sudoeste 0 -- -- 79
2020-01-17 09:00:00 5.7 4 Sudoeste 15 Oeste 0 -- -- 80
2020-01-17 08:00:00 5.6 5 Sudoeste 24 Oeste 0 -- -- 77
2020-01-17 07:00:00 5.8 7 Sudoeste 26 Sudoeste 0 -- -- 73
2020-01-17 06:00:00 5.5 11 Sudoeste 18 Sudoeste 0 -- -- 69
2020-01-17 05:00:00 5.5 8 Sudoeste 22 Sudoeste 0 -- -- 69
2020-01-17 04:00:00 5.6 10 Sudoeste 21 Sudoeste 0 -- -- 68
2020-01-17 03:00:00 6.1 9 Sudoeste 21 Sur 0 -- -- 66
2020-01-17 02:00:00 6.4 12 Sudoeste 24 Sudoeste 0 -- -- 65
2020-01-17 01:00:00 6 10 Sur 21 Sur 0 -- -- 66
2020-01-17 00:00:00 5.3 5 Sudoeste 17 Sur 0 -- -- 68
2020-01-16 23:00:00 6.4 8 Sur 18 Sudoeste 0 -- -- 62
2020-01-16 22:00:00 6.1 8 Sur 13 Sur 0 -- -- 65
2020-01-16 21:00:00 6.7 6 Sur 15 Sur 0 -- -- 64
2020-01-16 20:00:00 6.2 7 Sur 12 Sur 0 -- -- 64
2020-01-16 19:00:00 8 7 Sur 19 Sudoeste 0 -- -- 57
2020-01-16 18:00:00 10.9 9 Sudoeste 20 Sudoeste 0 -- -- 50
2020-01-16 17:00:00 13.4 7 Sudoeste 23 Oeste 0 -- -- 48
2020-01-16 16:00:00 13.8 10 Sudoeste 22 Oeste 0 -- -- 49
2020-01-16 15:00:00 13.7 8 Sudoeste 25 Oeste 0 -- -- 50
2020-01-16 14:00:00 12.2 10 Sudoeste 24 Sudoeste 0 -- -- 59
2020-01-16 13:00:00 12.2 10 Sur 17 Sudoeste 0 -- -- 66
2020-01-16 12:00:00 10 8 Sur 15 Sur 0 -- -- 71
2020-01-16 11:00:00 8.6 7 Sur 12 Sudeste 0 -- -- 74
2020-01-16 10:00:00 6.1 5 Sudeste 10 Sur 0 -- -- 86
2020-01-16 09:00:00 4.2 5 Sur 15 Sudeste 0 -- -- 91
2020-01-16 08:00:00 4.7 7 Sudeste 13 Sur 0 -- -- 90
2020-01-16 07:00:00 5.4 4 Sur 8 Sur 0 -- -- 90
2020-01-16 06:00:00 5.3 0 Calma 8 Sudeste 0 -- -- 90
2020-01-16 05:00:00 5.4 3 Sur 6 Sur 0 -- -- 90
2020-01-16 04:00:00 5.6 4 Sur 6 Sur 0 -- -- 90
2020-01-16 03:00:00 5.4 2 Sur 4 Sudeste 0 -- -- 91
2020-01-16 02:00:00 5.2 2 Sudeste 4 Sudeste 0 -- -- 88
2020-01-16 01:00:00 6.7 4 Sudeste 8 Sudeste 0 -- -- 86
2020-01-16 00:00:00 6.9 3 Sur 4 Sudeste 0 -- -- 85
2020-01-15 23:00:00 7.3 2 Sudeste 8 Sur 0 -- -- 83
2020-01-15 22:00:00 7.7 2 Sudoeste 8 Sudeste 0 -- -- 82
2020-01-15 21:00:00 7.8 0 Calma 10 Sur 0 -- -- 80
2020-01-15 20:00:00 8.1 5 Sur 9 Sur 0 -- -- 78
2020-01-15 19:00:00 8.3 4 Sur 7 Sur 0 -- -- 76
2020-01-15 18:00:00 9 3 Sur 10 Sudoeste 0 -- -- 73
2020-01-15 17:00:00 9.6 4 Sudoeste 15 Sur 0 -- -- 69
2020-01-15 16:00:00 11.4 5 Sudoeste 14 Oeste 0 -- -- 63
2020-01-15 15:00:00 8.8 4 Sudoeste 19 Sudoeste 0 -- -- 71
2020-01-15 14:00:00 8.2 7 Sudoeste 19 Sudoeste 0 -- -- 70
2020-01-15 13:00:00 7.1 6 Sur 14 Sudoeste 0 -- -- 76
2020-01-15 12:00:00 7.4 8 Sur 17 Sur 0 -- -- 75
2020-01-15 11:00:00 5.6 6 Sur 12 Sur 0 -- -- 83
2020-01-15 10:00:00 1.8 5 Sur 10 Sur 0 -- -- 94
2020-01-15 09:00:00 -0.8 0 Calma 12 Norte 0 -- -- 96
2020-01-15 08:00:00 -1.3 5 Norte 14 Sudeste 0 -- -- 93
2020-01-15 07:00:00 -0.4 2 Sur 10 Sudeste 0 -- -- 92
2020-01-15 06:00:00 1.1 0 Calma 8 Sudeste 0 -- -- 90
2020-01-15 05:00:00 1.2 0 Calma 10 Sudeste 0 -- -- 87
2020-01-15 04:00:00 1.9 4 Sudeste 7 Sudeste 0 -- -- 90
2020-01-15 03:00:00 1.1 0 Calma 9 Oeste 0 -- -- 90
2020-01-15 02:00:00 0.8 4 Sudeste 8 Sudeste 0 -- -- 89
2020-01-15 01:00:00 0.8 0 Calma 6 Sur 0 -- -- 89
2020-01-15 00:00:00 0.1 3 Sudeste 7 Sudeste 0 -- -- 88
2020-01-14 23:00:00 1.5 4 Sur 7 Sur 0 -- -- 86
2020-01-14 22:00:00 2 5 Sur 8 Sur 0 -- -- 82
2020-01-14 21:00:00 1.6 0 Calma 8 Sur 0 -- -- 80
2020-01-14 20:00:00 2.4 6 Sur 8 Sur 0 -- -- 77
2020-01-14 19:00:00 3.4 4 Sur 8 Sur 0 -- -- 76
2020-01-14 18:00:00 6.1 2 Sur 14 Oeste 0 -- -- 67
2020-01-14 17:00:00 8.9 7 Oeste 16 Oeste 0 -- -- 60
2020-01-14 16:00:00 9.7 8 Oeste 18 Oeste 0 -- -- 54
2020-01-14 15:00:00 10.2 5 Sudoeste 16 Oeste 0 -- -- 54
2020-01-14 14:00:00 9.7 5 Sudoeste 15 Sudoeste 0 -- -- 54
2020-01-14 13:00:00 8.5 3 Sudoeste 9 Sudoeste 0 -- -- 61
2020-01-14 12:00:00 6.4 2 Sur 5 Sudeste 0 -- -- 68
2020-01-14 11:00:00 1.7 0 Calma 2 Noroeste 0 -- -- 83
2020-01-14 10:00:00 -2.3 0 Calma 0 Calma 0 -- -- 94
2020-01-14 09:00:00 -6.3 0 Calma 3 Nordeste 0 -- -- 94
2020-01-14 08:00:00 -6.7 0 Calma 2 Norte 0 -- -- 93
2020-01-14 07:00:00 -6.3 0 Calma 2 Sudeste 0 -- -- 94
2020-01-14 06:00:00 -6.1 0 Calma 3 Sur 0 -- -- 92
2020-01-14 05:00:00 -6 0 Calma 2 Este 0 -- -- 92
2020-01-14 04:00:00 -5.7 0 Calma 3 Sudeste 0 -- -- 92
2020-01-14 03:00:00 -5.6 0 Calma 3 Sur 0 -- -- 90
2020-01-14 02:00:00 -4.7 0 Calma 4 Sur 0 -- -- 91
2020-01-14 01:00:00 -4 0 Calma 4 Norte 0 -- -- 91
2020-01-14 00:00:00 -3.4 0 Calma 4 Sur 0 -- -- 90
2020-01-13 23:00:00 -3.3 0 Calma 5 Noroeste 0 -- -- 88
2020-01-13 22:00:00 -2.2 0 Calma 4 Norte 0 -- -- 86
2020-01-13 21:00:00 -1.1 0 Calma 6 Sudeste 0 -- -- 82
2020-01-13 20:00:00 0.1 3 Este 5 Nordeste 0 -- -- 79
2020-01-13 19:00:00 2.6 0 Calma 4 Oeste 0 -- -- 71
2020-01-13 18:00:00 5.4 2 Oeste 13 Oeste 0 -- -- 63
2020-01-13 17:00:00 7.8 7 Oeste 18 Sudoeste 0 -- -- 55
2020-01-13 16:00:00 9 11 Noroeste 19 Noroeste 0 -- -- 51
2020-01-13 15:00:00 8.8 8 Oeste 22 Noroeste 0 -- -- 55
2020-01-13 14:00:00 8.8 12 Oeste 19 Oeste 0 -- -- 52
2020-01-13 13:00:00 7.9 4 Sudoeste 12 Sudoeste 0 -- -- 58
2020-01-13 12:00:00 5.7 5 Sur 8 Sur 0 -- -- 63
2020-01-13 11:00:00 1.9 3 Sur 5 Sur 0 -- -- 76
2020-01-13 10:00:00 -2.4 0 Calma 4 Sur 0 -- -- 86
2020-01-13 09:00:00 -5.9 0 Calma 3 Oeste 0 -- -- 92
2020-01-13 08:00:00 -6.2 0 Calma 3 Oeste 0 -- -- 92
2020-01-13 07:00:00 -6.3 0 Calma 5 Norte 0 -- -- 92
2020-01-13 06:00:00 -6.2 0 Calma 3 Norte 0 -- -- 90
2020-01-13 05:00:00 -5.3 0 Calma 4 Norte 0 -- -- 90
2020-01-13 04:00:00 -5.3 0 Calma 2 Oeste 0 -- -- 90
2020-01-13 03:00:00 -5.1 0 Calma 4 Norte 0 -- -- 88
2020-01-13 02:00:00 -4.4 2 Norte 5 Norte 0 -- -- 89
2020-01-13 01:00:00 -4 0 Calma 4 Este 0 -- -- 87
2020-01-13 00:00:00 -3.6 0 Calma 5 Sudeste 0 -- -- 86
2020-01-12 23:00:00 -2.8 0 Calma 5 Norte 0 -- -- 84
2020-01-12 22:00:00 -2.1 2 Sur 5 Sur 0 -- -- 83
2020-01-12 21:00:00 -0.7 0 Calma 3 Sudoeste 0 -- -- 79
2020-01-12 20:00:00 1.3 0 Calma 6 Sur 0 -- -- 72
2020-01-12 19:00:00 3.3 0 Calma 8 Oeste 0 -- -- 63
2020-01-12 18:00:00 6.2 4 Sudoeste 11 Sudoeste 0 -- -- 51
2020-01-12 17:00:00 9.4 6 Oeste 18 Oeste 0 -- -- 45
2020-01-12 16:00:00 10.1 9 Oeste 18 Noroeste 0 -- -- 41
2020-01-12 15:00:00 10 13 Oeste 20 Noroeste 0 -- -- 45
2020-01-12 14:00:00 10.4 11 Oeste 19 Oeste 0 -- -- 43
2020-01-12 13:00:00 9 3 Oeste 6 Noroeste 0 -- -- 56
2020-01-12 12:00:00 6.2 2 Noroeste 5 Noroeste 0 -- -- 71
2020-01-12 11:00:00 2.3 2 Noroeste 6 Nordeste 0 -- -- 85
2020-01-12 10:00:00 -1.2 0 Calma 9 Nordeste 0 -- -- 93
2020-01-12 09:00:00 -4.1 3 Nordeste 7 Norte 0 -- -- 95
2020-01-12 08:00:00 -4.4 5 Norte 6 Norte 0 -- -- 95
2020-01-12 07:00:00 -4.3 4 Norte 9 Norte 0 -- -- 95
2020-01-12 06:00:00 -4.8 3 Norte 5 Norte 0 -- -- 94
2020-01-12 05:00:00 -5.4 0 Calma 4 Norte 0 -- -- 94
2020-01-12 04:00:00 -5.2 0 Calma 0 Calma 0 -- -- 93
2020-01-12 03:00:00 -4.9 0 Calma 2 Norte -- -- -- 93
2020-01-12 02:00:00 -4.3 0 Calma 2 Sur 0 -- -- 92
2020-01-12 01:00:00 -3.7 0 Calma 2 Norte 0 -- -- 92
2020-01-12 00:00:00 -2.8 0 Calma 2 Este 0 -- -- 91
2020-01-11 23:00:00 -1.5 0 Calma 4 Oeste 0 -- -- 88
2020-01-11 22:00:00 -0.6 3 Oeste 4 Sudoeste 0 -- -- 85
2020-01-11 21:00:00 0.2 2 Sur 3 Sudoeste 0 -- -- 81
2020-01-11 20:00:00 1.7 0 Calma 3 Sudoeste 0 -- -- 78
2020-01-11 19:00:00 4 0 Calma 5 Oeste 0 -- -- 69
2020-01-11 18:00:00 6.9 4 Oeste 16 Oeste 0 -- -- 59
2020-01-11 17:00:00 10.6 10 Oeste 17 Oeste 0 -- -- 46
2020-01-11 16:00:00 11.4 8 Noroeste 18 Noroeste 0 -- -- 42
2020-01-11 15:00:00 11 4 Norte 9 Noroeste 0 -- -- 51
2020-01-11 14:00:00 9.7 2 Norte 11 Nordeste 0 -- -- 55
2020-01-11 13:00:00 7.5 6 Nordeste 15 Nordeste 0 -- -- 61
2020-01-11 12:00:00 5.4 10 Nordeste 17 Nordeste 0 -- -- 71
2020-01-11 11:00:00 3.2 10 Nordeste 17 Nordeste 0 -- -- 80
2020-01-11 10:00:00 1.5 11 Nordeste 15 Nordeste 0 -- -- 86
2020-01-11 09:00:00 -0.5 10 Nordeste 17 Nordeste 0 -- -- 90
2020-01-11 08:00:00 -0.6 9 Nordeste 16 Nordeste 0 -- -- 91
2020-01-11 07:00:00 -0.4 9 Nordeste 21 Nordeste 0 -- -- 90
2020-01-11 06:00:00 -0.3 13 Nordeste 21 Nordeste 0 -- -- 89
2020-01-11 05:00:00 0 10 Nordeste 20 Nordeste 0 -- -- 88
2020-01-11 04:00:00 0 9 Nordeste 20 Nordeste 0 -- -- 87
2020-01-11 03:00:00 0.7 13 Nordeste 24 Nordeste 0 -- -- 85
2020-01-11 02:00:00 0.9 12 Nordeste 28 Nordeste 0 -- -- 83
2020-01-11 01:00:00 1.9 16 Nordeste 31 Nordeste 0 -- -- 80
2020-01-11 00:00:00 2.1 14 Nordeste 29 Nordeste 0 -- -- 78
2020-01-10 23:00:00 2.2 14 Nordeste 28 Norte 0 -- -- 77
2020-01-10 22:00:00 2.6 8 Nordeste 21 Norte 0 -- -- 73
2020-01-10 21:00:00 3.4 11 Este 18 Este 0 -- -- 71
2020-01-10 20:00:00 4.7 10 Norte 20 Nordeste 0 -- -- 65
2020-01-10 19:00:00 5.4 10 Norte 22 Nordeste 0 -- -- 62
2020-01-10 18:00:00 7.1 14 Norte 32 Nordeste 0 -- -- 58
2020-01-10 17:00:00 8.4 17 Nordeste 36 Nordeste 0 -- -- 54
2020-01-10 16:00:00 9.1 19 Nordeste 32 Nordeste 0 -- -- 50
2020-01-10 15:00:00 9.2 15 Nordeste 35 Nordeste 0 -- -- 50
2020-01-10 14:00:00 8.2 17 Norte 37 Nordeste 0 -- -- 57
2020-01-10 13:00:00 7.1 18 Norte 32 Norte 0 -- -- 66
2020-01-10 12:00:00 5.9 17 Norte 29 Nordeste 0 -- -- 73
2020-01-10 11:00:00 4.7 15 Nordeste 26 Norte 0 -- -- 80
2020-01-10 10:00:00 2.4 9 Nordeste 24 Nordeste 0 -- -- 90
2020-01-10 09:00:00 0.1 11 Nordeste 22 Nordeste 0 -- -- 97
2020-01-10 08:00:00 -0.6 0 Calma 10 Norte 0 -- -- 97
2020-01-10 07:00:00 0.5 4 Nordeste 10 Este 0 -- -- 97
2020-01-10 06:00:00 -1.7 2 Nordeste 4 Este 0 -- -- 94
2020-01-10 05:00:00 -0.5 0 Calma 4 Oeste 0 -- -- 96
2020-01-10 04:00:00 0.5 2 Sur 6 Sudeste 0 -- -- 95
2020-01-10 03:00:00 1.2 3 Sudeste 8 Oeste 0 -- -- 96
2020-01-10 02:00:00 0.7 2 Sudoeste 7 Oeste 0 -- -- 95
2020-01-10 01:00:00 0.9 2 Sudoeste 5 Sudoeste 0 -- -- 93
2020-01-10 00:00:00 1.7 0 Calma 6 Oeste 0 -- -- 91
2020-01-09 23:00:00 3.3 0 Calma 6 Sudeste 0 -- -- 88
2020-01-09 22:00:00 4 3 Sur 5 Oeste 0 -- -- 86
2020-01-09 21:00:00 4.7 0 Calma 8 Oeste 0 -- -- 86
2020-01-09 20:00:00 5.4 2 Oeste 6 Sur 0 -- -- 81
2020-01-09 19:00:00 6.9 3 Sur 8 Sur 0 -- -- 77
2020-01-09 18:00:00 9.6 3 Sur 12 Oeste 0 -- -- 68
2020-01-09 17:00:00 13.4 6 Sudoeste 12 Oeste 0 -- -- 55
2020-01-09 16:00:00 13.9 4 Sudoeste 14 Sur 0 -- -- 52
2020-01-09 15:00:00 13.4 7 Sur 17 Sudeste 0 -- -- 53
2020-01-09 14:00:00 12.4 9 Sudeste 17 Sudeste 0 -- -- 56
2020-01-09 13:00:00 11.2 5 Sudeste 14 Sudeste 0 -- -- 60
2020-01-09 12:00:00 9.4 8 Sudeste 15 Sudeste 0 -- -- 68
2020-01-09 11:00:00 7.2 6 Sudeste 13 Este 0 -- -- 75
2020-01-09 10:00:00 3.7 3 Este 8 Este 0 -- -- 85
2020-01-09 09:00:00 0.1 4 Nordeste 8 Este 0 -- -- 89
2020-01-09 08:00:00 0.5 5 Este 12 Este 0 -- -- 89
2020-01-09 07:00:00 0.3 5 Este 8 Este 0 -- -- 89
2020-01-09 06:00:00 1.4 0 Calma 8 Sudeste 0 -- -- 88
2020-01-09 05:00:00 1 3 Este 10 Este 0 -- -- 87
2020-01-09 04:00:00 1.4 6 Este 11 Este 0 -- -- 92
2020-01-09 03:00:00 1.5 4 Este 6 Este 0 -- -- 92
2020-01-09 02:00:00 2.5 0 Calma 8 Norte 0 -- -- 89
2020-01-09 01:00:00 2.9 8 Este 12 Sudeste 0 -- -- 88
2020-01-09 00:00:00 4.2 5 Este 9 Este 0 -- -- 85
2020-01-08 23:00:00 4.2 5 Este 10 Este 0 -- -- 82
2020-01-08 22:00:00 4.9 0 Calma 5 Este 0 -- -- 80
2020-01-08 21:00:00 5.7 2 Oeste 12 Sudeste 0 -- -- 74
2020-01-08 20:00:00 7.5 5 Sudeste 21 Sudeste 0 -- -- 68
2020-01-08 19:00:00 8.9 10 Sudeste 17 Sudeste 0 -- -- 63
2020-01-08 18:00:00 10.6 6 Sudeste 21 Sur 0 -- -- 56
2020-01-08 17:00:00 13.7 11 Sudeste 21 Sudeste 0 -- -- 48
2020-01-08 16:00:00 15.1 10 Sudeste 22 Sudeste 0 -- -- 43
2020-01-08 15:00:00 15.2 3 Sudeste 12 Norte 0 -- -- 44
2020-01-08 14:00:00 14.2 6 Nordeste 17 Nordeste 0 -- -- 40
2020-01-08 13:00:00 12.8 9 Nordeste 14 Norte 0 -- -- 43
2020-01-08 12:00:00 8.9 10 Nordeste 15 Nordeste 0 -- -- 53
2020-01-08 11:00:00 6.7 9 Norte 15 Nordeste 0 -- -- 57
2020-01-08 10:00:00 2.9 9 Norte 13 Norte 0 -- -- 67
2020-01-08 09:00:00 1.3 5 Nordeste 10 Nordeste 0 -- -- 69
2020-01-08 08:00:00 0.3 4 Norte 9 Norte 0 -- -- 76
2020-01-08 07:00:00 0 5 Norte 8 Noroeste 0 -- -- 79
2020-01-08 06:00:00 -0.2 0 Calma 7 Nordeste 0 -- -- 80
2020-01-08 05:00:00 0 6 Nordeste 10 Nordeste 0 -- -- 79
2020-01-08 04:00:00 1.3 3 Norte 12 Nordeste 0 -- -- 77
2020-01-08 03:00:00 2.7 7 Nordeste 16 Nordeste 0 -- -- 76
2020-01-08 02:00:00 3.2 12 Nordeste 17 Nordeste 0 -- -- 77
2020-01-08 01:00:00 1.7 6 Norte 9 Norte 0 -- -- 83
2020-01-08 00:00:00 -0.3 0 Calma 6 Norte 0 -- -- 82
2020-01-07 23:00:00 0.7 2 Nordeste 4 Norte 0 -- -- 83
2020-01-07 22:00:00 3.1 0 Calma 7 Oeste 0 -- -- 75
2020-01-07 21:00:00 5.6 7 Oeste 10 Oeste 0 -- -- 69
2020-01-07 20:00:00 5.6 6 Oeste 9 Oeste 0 -- -- 69
2020-01-07 19:00:00 7.1 3 Sudoeste 14 Oeste 0 -- -- 64
2020-01-07 18:00:00 9.6 7 Oeste 12 Oeste 0 -- -- 55
2020-01-07 17:00:00 14.5 8 Oeste 13 Oeste 0 -- -- 43
2020-01-07 16:00:00 14.7 4 Norte 13 Nordeste 0 -- -- 35
2020-01-07 15:00:00 13.9 9 Nordeste 14 Nordeste 0 -- -- 37
2020-01-07 14:00:00 13.1 5 Nordeste 12 Nordeste 0 -- -- 38
2020-01-07 13:00:00 10.2 6 Nordeste 14 Nordeste 0 -- -- 47
2020-01-07 12:00:00 7.1 10 Nordeste 17 Nordeste 0 -- -- 57
2020-01-07 11:00:00 4.3 10 Norte 21 Nordeste 0 -- -- 69
2020-01-07 10:00:00 2.2 6 Nordeste 17 Norte 0 -- -- 76
2020-01-07 09:00:00 -0.2 5 Nordeste 16 Nordeste 0 -- -- 81
2020-01-07 08:00:00 0.7 8 Nordeste 18 Nordeste 0 -- -- 77
2020-01-07 07:00:00 0.1 4 Nordeste 11 Norte 0 -- -- 79
2020-01-07 06:00:00 -0.3 5 Norte 8 Norte 0 -- -- 83
2020-01-07 05:00:00 0.7 5 Nordeste 10 Nordeste 0 -- -- 82
2020-01-07 04:00:00 -0.7 5 Norte 9 Norte 0 -- -- 85
2020-01-07 03:00:00 -1.2 4 Norte 6 Norte 0 -- -- 89
2020-01-07 02:00:00 -1.4 0 Calma 6 Norte 0 -- -- 85
2020-01-07 01:00:00 -0.8 0 Calma 4 Sur 0 -- -- 83
2020-01-07 00:00:00 -1 0 Calma 3 Norte 0 -- -- 84
2020-01-06 23:00:00 -0.4 2 Noroeste 4 Noroeste 0 -- -- 81
2020-01-06 22:00:00 0.9 0 Calma 4 Norte 0 -- -- 78
2020-01-06 21:00:00 2 0 Calma 6 Noroeste 0 -- -- 76
2020-01-06 20:00:00 3.2 0 Calma 5 Norte 0 -- -- 71
2020-01-06 19:00:00 5.4 0 Calma 5 Nordeste 0 -- -- 63
2020-01-06 18:00:00 9 4 Nordeste 12 Norte 0 -- -- 54
2020-01-06 17:00:00 11.8 5 Norte 12 Nordeste 0 -- -- 47
2020-01-06 16:00:00 13 6 Nordeste 12 Nordeste 0 -- -- 45
2020-01-06 15:00:00 13.4 4 Nordeste 10 Norte 0 -- -- 39
2020-01-06 14:00:00 11.9 6 Norte 13 Nordeste 0 -- -- 42
2020-01-06 13:00:00 9.8 9 Nordeste 15 Norte 0 -- -- 58
2020-01-06 12:00:00 7.3 9 Nordeste 19 Nordeste 0 -- -- 66
2020-01-06 11:00:00 4.3 12 Nordeste 19 Nordeste 0 -- -- 77
2020-01-06 10:00:00 2.8 8 Norte 12 Norte 0 -- -- 80